Time;durP1;ratioP1;P1;durP2;ratioP2;P2;SDS_P1;SDS_P2;PMS_P1;PMS_P2;Temp;Humidity;BMP_temperature;BMP_pressure;BME280_temperature;BME280_humidity;BME280_pressure;Samples;Min_cycle;Max_cycle;Signal;HPM_P1;HPM_P2
2023/10/19 00:01:15;;;;;;;14.43;7.47;;;;;;;;;;5075714;28;20157;-78
2023/10/19 00:03:41;;;;;;;15.83;8.13;;;;;;;;;;5072855;28;20094;-79
2023/10/19 00:06:06;;;;;;;16.40;8.00;;;;;;;;;;5072066;28;20037;-81
2023/10/19 00:08:41;;;;;;;17.10;8.37;;;;;;;;;;5056171;28;20649;-78
2023/10/19 00:11:21;;;;;;;13.87;7.63;;;;;;;;;;5054964;28;20449;-79
2023/10/19 00:13:50;;;;;;;16.63;8.57;;;;;;;;;;5054829;28;20583;-79
2023/10/19 00:16:22;;;;;;;15.77;7.77;;;;;;;;;;5040228;28;20112;-80
2023/10/19 00:18:52;;;;;;;20.53;7.80;;;;;;;;;;5071037;28;20112;-80
2023/10/19 00:21:23;;;;;;;16.53;7.27;;;;;;;;;;5060158;28;20021;-79
2023/10/19 00:23:56;;;;;;;16.30;7.80;;;;;;;;;;5052455;28;20115;-79
2023/10/19 00:26:26;;;;;;;15.37;7.87;;;;;;;;;;5051994;28;20126;-79
2023/10/19 00:28:55;;;;;;;14.63;7.53;;;;;;;;;;5048072;28;20124;-80
2023/10/19 00:31:21;;;;;;;17.40;8.07;;;;;;;;;;5033734;28;20128;-79
2023/10/19 00:33:47;;;;;;;16.13;8.27;;;;;;;;;;5051838;28;20473;-80
2023/10/19 00:36:14;;;;;;;14.97;7.70;;;;;;;;;;5037329;28;20028;-80
2023/10/19 00:38:53;;;;;;;16.07;8.30;;;;;;;;;;5042163;28;20124;-79
2023/10/19 00:41:27;;;;;;;16.60;8.07;;;;;;;;;;5055331;28;20488;-80
2023/10/19 00:44:11;;;;;;;17.30;7.67;;;;;;;;;;5066612;28;20035;-79
2023/10/19 00:46:43;;;;;;;14.73;7.67;;;;;;;;;;5054350;28;20673;-78
2023/10/19 00:49:12;;;;;;;12.98;7.93;;;;;;;;;;5068187;28;20546;-77
2023/10/19 00:54:50;;;;;;;14.87;7.60;;;;;;;;;;5044566;28;20043;-77
2023/10/19 00:57:20;;;;;;;17.17;6.77;;;;;;;;;;5049038;28;20029;-78
2023/10/19 00:59:48;;;;;;;13.87;8.00;;;;;;;;;;5050559;28;20021;-77
2023/10/19 01:02:19;;;;;;;13.77;8.33;;;;;;;;;;5048523;28;20669;-77
2023/10/19 01:04:50;;;;;;;12.45;7.68;;;;;;;;;;5035619;28;20028;-77
2023/10/19 01:09:56;;;;;;;16.77;7.67;;;;;;;;;;5044134;28;20151;-78
2023/10/19 01:12:39;;;;;;;18.13;7.80;;;;;;;;;;5032383;28;20049;-77
2023/10/19 01:17:56;;;;;;;15.70;7.37;;;;;;;;;;5070464;28;20035;-77
2023/10/19 01:28:47;;;;;;;16.10;7.53;;;;;;;;;;5070637;28;20028;-77
2023/10/19 01:31:22;;;;;;;14.37;7.43;;;;;;;;;;5070475;28;20078;-77
2023/10/19 01:33:49;;;;;;;13.87;7.80;;;;;;;;;;5052345;28;20021;-77
2023/10/19 01:36:15;;;;;;;13.23;7.40;;;;;;;;;;5052545;28;20032;-77
2023/10/19 01:38:41;;;;;;;14.60;7.50;;;;;;;;;;5068700;28;20031;-78
2023/10/19 01:41:21;;;;;;;13.13;7.50;;;;;;;;;;5070512;28;20144;-78
2023/10/19 01:43:50;;;;;;;15.77;8.03;;;;;;;;;;5053338;28;20024;-78
2023/10/19 01:46:24;;;;;;;12.87;7.10;;;;;;;;;;5069697;28;20081;-77
2023/10/19 01:49:02;;;;;;;16.43;7.83;;;;;;;;;;5069432;28;20119;-77
2023/10/19 01:51:29;;;;;;;12.40;7.73;;;;;;;;;;5054011;28;20043;-76
2023/10/19 01:53:57;;;;;;;10.93;6.73;;;;;;;;;;5054285;28;20035;-77
2023/10/19 01:56:23;;;;;;;13.13;7.83;;;;;;;;;;5071506;28;20024;-77
2023/10/19 01:58:51;;;;;;;14.67;7.53;;;;;;;;;;5072884;28;20020;-77
2023/10/19 02:01:28;;;;;;;15.90;7.93;;;;;;;;;;5071803;28;20063;-78
2023/10/19 02:03:59;;;;;;;15.07;8.33;;;;;;;;;;5073613;28;20024;-76
2023/10/19 02:06:48;;;;;;;12.90;7.40;;;;;;;;;;5073679;28;20028;-77
2023/10/19 02:09:32;;;;;;;11.07;6.47;;;;;;;;;;5074126;28;20052;-78
2023/10/19 02:11:58;;;;;;;15.33;7.33;;;;;;;;;;5073138;28;20032;-77
2023/10/19 02:14:26;;;;;;;12.87;7.13;;;;;;;;;;5074934;28;20116;-77
2023/10/19 02:16:56;;;;;;;14.57;7.43;;;;;;;;;;5078677;28;20050;-77
2023/10/19 02:19:23;;;;;;;12.90;7.00;;;;;;;;;;5077106;28;20077;-78
2023/10/19 02:21:51;;;;;;;17.63;7.60;;;;;;;;;;5076854;28;20033;-77
2023/10/19 02:24:17;;;;;;;17.20;8.30;;;;;;;;;;5075632;28;20059;-77
2023/10/19 02:26:44;;;;;;;13.90;7.67;;;;;;;;;;5075329;28;20024;-76
2023/10/19 02:29:10;;;;;;;12.33;7.73;;;;;;;;;;5074763;28;20020;-77
2023/10/19 02:31:43;;;;;;;14.53;7.50;;;;;;;;;;5056607;28;20024;-79
2023/10/19 02:34:11;;;;;;;12.90;6.90;;;;;;;;;;5056120;28;20356;-78
2023/10/19 02:36:38;;;;;;;15.60;7.67;;;;;;;;;;5055802;28;20028;-77
2023/10/19 02:39:08;;;;;;;13.73;6.90;;;;;;;;;;5073225;28;20113;-79
2023/10/19 02:41:38;;;;;;;15.93;7.97;;;;;;;;;;5072152;28;20093;-78
2023/10/19 02:44:19;;;;;;;17.97;8.30;;;;;;;;;;5071984;28;20027;-77
2023/10/19 02:46:46;;;;;;;14.20;7.40;;;;;;;;;;5072585;28;20028;-77
2023/10/19 02:49:19;;;;;;;15.07;7.37;;;;;;;;;;5072977;28;20028;-77
2023/10/19 02:51:46;;;;;;;13.40;7.27;;;;;;;;;;5066176;28;20028;-78
2023/10/19 02:54:22;;;;;;;13.07;7.43;;;;;;;;;;5071391;28;20024;-78
2023/10/19 02:56:52;;;;;;;13.83;7.90;;;;;;;;;;5071625;28;20062;-77
2023/10/19 02:59:23;;;;;;;15.43;8.23;;;;;;;;;;5055514;28;20028;-79
2023/10/19 03:04:39;;;;;;;11.50;6.87;;;;;;;;;;5072895;28;20090;-78
2023/10/19 03:07:05;;;;;;;13.50;7.63;;;;;;;;;;5072683;28;20032;-77
2023/10/19 03:09:39;;;;;;;12.70;6.67;;;;;;;;;;5071756;28;20115;-77
2023/10/19 03:12:10;;;;;;;13.70;7.53;;;;;;;;;;5072530;28;20115;-73
2023/10/19 03:14:37;;;;;;;17.67;7.17;;;;;;;;;;5068720;28;20564;-74
2023/10/19 03:17:04;;;;;;;13.90;7.87;;;;;;;;;;5070784;28;20404;-74
2023/10/19 03:19:29;;;;;;;17.07;8.10;;;;;;;;;;5055001;28;20040;-75
2023/10/19 03:21:55;;;;;;;18.10;8.10;;;;;;;;;;5070807;28;20081;-74
2023/10/19 03:24:36;;;;;;;17.27;8.13;;;;;;;;;;5072584;28;20400;-74
2023/10/19 03:27:18;;;;;;;13.10;7.97;;;;;;;;;;5071030;28;20028;-74
2023/10/19 03:29:54;;;;;;;;;;;;;;;;;;5055388;28;20036;-73
2023/10/19 03:32:32;;;;;;;15.47;8.17;;;;;;;;;;5072700;28;19985;-74
2023/10/19 03:34:59;;;;;;;13.83;8.37;;;;;;;;;;5054934;28;20436;-74
2023/10/19 03:37:29;;;;;;;14.30;8.47;;;;;;;;;;5071809;28;20040;-73
2023/10/19 03:39:58;;;;;;;15.87;8.43;;;;;;;;;;5045526;28;20120;-79
2023/10/19 03:42:26;;;;;;;15.00;7.87;;;;;;;;;;5054055;28;20029;-79
2023/10/19 03:44:55;;;;;;;22.53;9.20;;;;;;;;;;5071191;28;20672;-79
2023/10/19 03:47:25;;;;;;;14.87;8.03;;;;;;;;;;5055719;28;20028;-80
2023/10/19 03:49:50;;;;;;;15.03;8.67;;;;;;;;;;5072278;28;20032;-79
2023/10/19 03:54:42;;;;;;;17.03;8.67;;;;;;;;;;5070212;28;20024;-79
2023/10/19 03:57:12;;;;;;;17.77;8.93;;;;;;;;;;5071328;28;20107;-79
2023/10/19 03:59:41;;;;;;;22.50;10.13;;;;;;;;;;5070853;28;20059;-79
2023/10/19 04:02:14;;;;;;;22.17;11.37;;;;;;;;;;5070777;28;20115;-79
2023/10/19 04:04:43;;;;;;;20.47;11.40;;;;;;;;;;5067189;28;20085;-79
2023/10/19 04:07:20;;;;;;;20.20;11.20;;;;;;;;;;5064343;28;20032;-80
2023/10/19 04:12:30;;;;;;;18.90;10.47;;;;;;;;;;5070197;28;20043;-79
2023/10/19 04:15:11;;;;;;;20.23;10.20;;;;;;;;;;5061710;28;20062;-75
2023/10/19 04:17:38;;;;;;;23.63;10.37;;;;;;;;;;5070694;28;20107;-80
2023/10/19 04:20:14;;;;;;;20.43;10.73;;;;;;;;;;5053193;28;20028;-79
2023/10/19 04:22:39;;;;;;;18.00;10.30;;;;;;;;;;5070613;28;20545;-79
2023/10/19 04:25:06;;;;;;;22.60;10.70;;;;;;;;;;5070599;28;20036;-81
2023/10/19 04:27:35;;;;;;;22.80;10.70;;;;;;;;;;5071823;28;20101;-78
2023/10/19 04:30:02;;;;;;;19.57;10.37;;;;;;;;;;5070389;28;20584;-77
2023/10/19 04:32:28;;;;;;;19.10;10.07;;;;;;;;;;5081846;28;20028;-80
2023/10/19 04:34:53;;;;;;;21.03;11.23;;;;;;;;;;5083314;28;20284;-80
2023/10/19 04:37:19;;;;;;;16.77;9.90;;;;;;;;;;5065951;28;20078;-80
2023/10/19 04:39:46;;;;;;;21.13;13.57;;;;;;;;;;5072968;28;20602;-78
2023/10/19 04:42:12;;;;;;;16.43;9.97;;;;;;;;;;5090036;28;20021;-75
2023/10/19 04:44:38;;;;;;;21.57;10.63;;;;;;;;;;5091529;28;20032;-77
2023/10/19 04:47:03;;;;;;;23.20;11.43;;;;;;;;;;5091332;28;20025;-77
2023/10/19 04:49:29;;;;;;;18.30;9.43;;;;;;;;;;5082948;28;20129;-79
2023/10/19 04:51:54;;;;;;;20.87;10.70;;;;;;;;;;5071676;28;20025;-78
2023/10/19 04:54:20;;;;;;;24.10;12.07;;;;;;;;;;5070590;28;20036;-79
2023/10/19 04:56:45;;;;;;;18.63;10.90;;;;;;;;;;5070804;28;20082;-79
2023/10/19 04:59:12;;;;;;;15.67;9.83;;;;;;;;;;5070270;28;20025;-79
2023/10/19 05:01:37;;;;;;;21.83;11.37;;;;;;;;;;5070056;28;20420;-80
2023/10/19 05:04:03;;;;;;;17.83;10.27;;;;;;;;;;5070738;28;20060;-80
2023/10/19 05:06:29;;;;;;;21.47;11.70;;;;;;;;;;5071422;28;20100;-81
2023/10/19 05:08:54;;;;;;;21.67;10.97;;;;;;;;;;5070815;28;20032;-80
2023/10/19 05:11:20;;;;;;;18.20;10.43;;;;;;;;;;5069559;28;20112;-78
2023/10/19 05:13:46;;;;;;;18.90;11.43;;;;;;;;;;5069301;28;20033;-80
2023/10/19 05:16:11;;;;;;;20.57;9.67;;;;;;;;;;5048726;28;20029;-78
2023/10/19 05:18:38;;;;;;;37.33;20.20;;;;;;;;;;5067072;28;20095;-79
2023/10/19 05:21:05;;;;;;;20.83;12.00;;;;;;;;;;5054964;28;20028;-80
2023/10/19 05:23:30;;;;;;;20.10;11.13;;;;;;;;;;5072825;28;20031;-79
2023/10/19 05:26:06;;;;;;;22.60;11.77;;;;;;;;;;5071043;28;20020;-80
2023/10/19 05:28:32;;;;;;;24.47;13.10;;;;;;;;;;5051263;28;20025;-81
2023/10/19 05:31:00;;;;;;;20.23;10.80;;;;;;;;;;5069559;28;20373;-80
2023/10/19 05:33:29;;;;;;;21.70;10.00;;;;;;;;;;5052497;28;20164;-80
2023/10/19 05:35:55;;;;;;;20.93;10.17;;;;;;;;;;5052973;28;20067;-79
2023/10/19 05:38:22;;;;;;;18.77;10.57;;;;;;;;;;5071656;28;20068;-80
2023/10/19 05:40:49;;;;;;;23.30;12.03;;;;;;;;;;5071668;28;20037;-82
2023/10/19 05:43:20;;;;;;;20.23;11.93;;;;;;;;;;5071318;28;20051;-80
2023/10/19 05:45:49;;;;;;;21.50;10.47;;;;;;;;;;5052057;28;20024;-78
2023/10/19 05:48:15;;;;;;;23.63;11.73;;;;;;;;;;5063908;28;20035;-79
2023/10/19 05:50:42;;;;;;;21.20;11.10;;;;;;;;;;5051682;28;20017;-79
2023/10/19 05:53:08;;;;;;;22.60;11.43;;;;;;;;;;5051372;28;20032;-79
2023/10/19 05:55:36;;;;;;;22.13;11.83;;;;;;;;;;5070071;28;20028;-79
2023/10/19 05:58:05;;;;;;;18.37;11.03;;;;;;;;;;5069530;28;20481;-77
2023/10/19 06:00:30;;;;;;;19.60;11.83;;;;;;;;;;5048803;28;20083;-80
2023/10/19 06:02:57;;;;;;;20.70;10.87;;;;;;;;;;5046675;28;20040;-81
2023/10/19 06:05:23;;;;;;;24.57;12.43;;;;;;;;;;5051774;28;20028;-78
2023/10/19 06:07:49;;;;;;;21.93;11.87;;;;;;;;;;5051603;28;20036;-79
2023/10/19 06:10:20;;;;;;;23.40;11.70;;;;;;;;;;5070482;28;20039;-78
2023/10/19 06:12:49;;;;;;;21.33;11.40;;;;;;;;;;5068754;28;20025;-79
2023/10/19 06:15:16;;;;;;;24.77;12.03;;;;;;;;;;5041460;28;20513;-78
2023/10/19 06:17:42;;;;;;;21.40;12.10;;;;;;;;;;5043397;28;20065;-80
2023/10/19 06:20:19;;;;;;;26.50;11.97;;;;;;;;;;5048745;28;20029;-79
2023/10/19 06:22:50;;;;;;;22.63;12.37;;;;;;;;;;5053857;28;20556;-79
2023/10/19 06:25:21;;;;;;;21.93;11.93;;;;;;;;;;5048112;28;20036;-77
2023/10/19 06:27:48;;;;;;;24.60;13.02;;;;;;;;;;5067728;28;20021;-76
2023/10/19 06:30:18;;;;;;;18.83;10.47;;;;;;;;;;5065646;28;20165;-76
2023/10/19 06:32:51;;;;;;;24.67;11.80;;;;;;;;;;5055591;28;20082;-77
2023/10/19 06:35:18;;;;;;;20.67;12.40;;;;;;;;;;5072157;28;20676;-76
2023/10/19 06:37:44;;;;;;;22.43;13.23;;;;;;;;;;5042109;28;20032;-78
2023/10/19 06:40:16;;;;;;;24.23;12.43;;;;;;;;;;5044314;28;20029;-80
2023/10/19 06:42:46;;;;;;;22.97;12.03;;;;;;;;;;5052415;28;20052;-81
2023/10/19 06:45:15;;;;;;;19.90;12.20;;;;;;;;;;5048376;28;20056;-78
2023/10/19 06:47:44;;;;;;;24.17;12.27;;;;;;;;;;5066454;28;20578;-76
2023/10/19 06:50:15;;;;;;;26.13;12.17;;;;;;;;;;5071919;28;20028;-78
2023/10/19 06:52:48;;;;;;;21.07;11.73;;;;;;;;;;5040848;28;20036;-77
2023/10/19 06:55:22;;;;;;;21.95;11.30;;;;;;;;;;5059971;28;20699;-74
2023/10/19 06:57:57;;;;;;;25.80;13.38;;;;;;;;;;5063004;28;20059;-79
2023/10/19 07:00:27;;;;;;;21.27;12.03;;;;;;;;;;5061792;28;20236;-79
2023/10/19 07:02:55;;;;;;;23.07;12.90;;;;;;;;;;5058760;28;20143;-80
2023/10/19 07:05:23;;;;;;;24.35;13.95;;;;;;;;;;5044794;28;20024;-75
2023/10/19 07:07:54;;;;;;;24.43;14.20;;;;;;;;;;5064409;28;20115;-77
2023/10/19 07:10:24;;;;;;;28.50;14.10;;;;;;;;;;5053422;28;20100;-77
2023/10/19 07:12:54;;;;;;;26.43;13.43;;;;;;;;;;5073899;28;20099;-74
2023/10/19 07:15:22;;;;;;;21.75;13.15;;;;;;;;;;5055288;28;20070;-76
2023/10/19 07:17:49;;;;;;;21.10;12.82;;;;;;;;;;5047967;28;20066;-76
2023/10/19 07:20:25;;;;;;;23.40;13.60;;;;;;;;;;5058632;28;20032;-77
2023/10/19 07:23:09;;;;;;;25.87;13.17;;;;;;;;;;5054729;28;20029;-80
2023/10/19 07:25:45;;;;;;;20.90;12.27;;;;;;;;;;5060115;28;20031;-76
2023/10/19 07:28:15;;;;;;;27.85;13.70;;;;;;;;;;5062967;28;20489;-75
2023/10/19 07:30:43;;;;;;;26.13;12.87;;;;;;;;;;5059348;28;20123;-80
2023/10/19 07:33:09;;;;;;;21.98;13.20;;;;;;;;;;5057535;28;20119;-75
2023/10/19 07:35:42;;;;;;;21.77;12.93;;;;;;;;;;5056888;28;20044;-75
2023/10/19 07:38:16;;;;;;;19.25;12.75;;;;;;;;;;5044775;28;20027;-78
2023/10/19 07:40:44;;;;;;;26.13;13.40;;;;;;;;;;5055095;28;20025;-76
2023/10/19 07:43:09;;;;;;;23.92;13.77;;;;;;;;;;5052336;28;20384;-77
2023/10/19 07:45:36;;;;;;;22.33;13.05;;;;;;;;;;5045596;28;20028;-77
2023/10/19 07:48:06;;;;;;;23.77;13.57;;;;;;;;;;5037044;28;20489;-76
2023/10/19 07:50:36;;;;;;;28.15;12.50;;;;;;;;;;5057721;28;20031;-76
2023/10/19 07:53:02;;;;;;;25.70;12.95;;;;;;;;;;5046370;28;20033;-77
2023/10/19 07:55:28;;;;;;;25.95;13.63;;;;;;;;;;5068119;28;20039;-76
2023/10/19 07:58:03;;;;;;;22.40;12.85;;;;;;;;;;5060522;28;20089;-75
2023/10/19 08:00:34;;;;;;;21.90;12.67;;;;;;;;;;5070036;28;20031;-80
2023/10/19 08:03:00;;;;;;;27.48;12.82;;;;;;;;;;5043812;28;20378;-75
2023/10/19 08:05:26;;;;;;;22.02;13.13;;;;;;;;;;5046517;28;20037;-76
2023/10/19 08:07:52;;;;;;;23.88;14.05;;;;;;;;;;5050847;28;20086;-74
2023/10/19 08:10:20;;;;;;;27.73;14.65;;;;;;;;;;5062368;28;20028;-76
2023/10/19 08:12:47;;;;;;;70.43;33.72;;;;;;;;;;5046549;28;20048;-75
2023/10/19 08:15:15;;;;;;;30.42;14.65;;;;;;;;;;5043296;28;20144;-76
2023/10/19 08:17:43;;;;;;;25.88;14.18;;;;;;;;;;5070039;28;20148;-75
2023/10/19 08:20:27;;;;;;;29.63;14.80;;;;;;;;;;5059698;28;20032;-76
2023/10/19 08:22:56;;;;;;;31.52;15.07;;;;;;;;;;5059769;28;20029;-78
2023/10/19 08:25:27;;;;;;;27.45;14.85;;;;;;;;;;5069398;28;20086;-76
2023/10/19 08:27:58;;;;;;;30.55;14.93;;;;;;;;;;5059520;28;20096;-74
2023/10/19 08:30:24;;;;;;;28.58;16.70;;;;;;;;;;5040728;28;20042;-77
2023/10/19 08:32:51;;;;;;;28.85;15.45;;;;;;;;;;5050587;28;20036;-77
2023/10/19 08:35:24;;;;;;;28.27;15.95;;;;;;;;;;5064666;28;20017;-76
2023/10/19 08:37:50;;;;;;;32.25;16.40;;;;;;;;;;5065833;28;20028;-76
2023/10/19 08:40:17;;;;;;;27.83;15.43;;;;;;;;;;5052964;28;20043;-76
2023/10/19 08:42:45;;;;;;;32.38;16.48;;;;;;;;;;5048996;28;20081;-77
2023/10/19 08:45:13;;;;;;;26.42;14.77;;;;;;;;;;5054616;28;20024;-76
2023/10/19 08:47:52;;;;;;;25.88;14.68;;;;;;;;;;5060298;28;20090;-77
2023/10/19 08:50:23;;;;;;;34.35;15.77;;;;;;;;;;5071253;28;20028;-76
2023/10/19 08:52:55;;;;;;;26.08;14.13;;;;;;;;;;5072340;28;20286;-75
2023/10/19 08:55:21;;;;;;;26.98;16.08;;;;;;;;;;5061094;28;20123;-76
2023/10/19 08:57:49;;;;;;;31.73;15.32;;;;;;;;;;5041870;28;20037;-77
2023/10/19 09:00:18;;;;;;;28.77;15.40;;;;;;;;;;5053217;28;20048;-77
2023/10/19 09:02:46;;;;;;;27.00;14.40;;;;;;;;;;5033257;28;20155;-77
2023/10/19 09:05:40;;;;;;;25.35;14.88;;;;;;;;;;5066386;28;20099;-76
2023/10/19 09:08:06;;;;;;;27.75;14.32;;;;;;;;;;5052277;28;20559;-76
2023/10/19 09:10:32;;;;;;;25.17;14.45;;;;;;;;;;5063817;28;20103;-75
2023/10/19 09:13:09;;;;;;;26.85;14.32;;;;;;;;;;5047752;28;20111;-77
2023/10/19 09:15:39;;;;;;;35.90;18.42;;;;;;;;;;5041901;28;20076;-76
2023/10/19 09:18:23;;;;;;;26.67;15.55;;;;;;;;;;5045643;28;20044;-75
2023/10/19 09:20:52;;;;;;;24.88;15.70;;;;;;;;;;5063772;28;20051;-74
2023/10/19 09:23:28;;;;;;;25.38;15.23;;;;;;;;;;5041333;28;20025;-76
2023/10/19 09:25:57;;;;;;;28.27;15.55;;;;;;;;;;5056665;28;20040;-74
2023/10/19 09:28:24;;;;;;;24.80;14.60;;;;;;;;;;5046313;28;20680;-79
2023/10/19 09:30:51;;;;;;;25.83;15.23;;;;;;;;;;5054933;28;20267;-80
2023/10/19 09:33:27;;;;;;;25.38;14.70;;;;;;;;;;5060298;28;20847;-80
2023/10/19 09:35:56;;;;;;;27.25;14.70;;;;;;;;;;5044514;28;20020;-79
2023/10/19 09:38:22;;;;;;;25.52;15.00;;;;;;;;;;5064697;28;20028;-74
2023/10/19 09:40:59;;;;;;;26.67;16.25;;;;;;;;;;5053014;28;20035;-74
2023/10/19 09:43:33;;;;;;;22.48;13.95;;;;;;;;;;5037892;28;20202;-75
2023/10/19 09:46:04;;;;;;;26.80;14.80;;;;;;;;;;5052181;28;20028;-74
2023/10/19 09:48:38;;;;;;;22.85;13.52;;;;;;;;;;5042502;28;20036;-77
2023/10/19 09:51:08;;;;;;;24.80;15.10;;;;;;;;;;5053153;28;20115;-74
2023/10/19 09:53:34;;;;;;;24.35;14.50;;;;;;;;;;5035977;28;20469;-77
2023/10/19 09:56:02;;;;;;;23.63;15.00;;;;;;;;;;5050919;28;20079;-76
2023/10/19 09:58:46;;;;;;;26.85;14.55;;;;;;;;;;5055757;28;20070;-81
2023/10/19 10:01:56;;;;;;;21.88;13.02;;;;;;;;;;5025031;28;20036;-78
2023/10/19 10:04:31;;;;;;;23.25;13.30;;;;;;;;;;5042341;28;20040;-78
2023/10/19 10:06:59;;;;;;;27.77;16.73;;;;;;;;;;5056567;28;20040;-80
2023/10/19 10:09:26;;;;;;;26.25;15.57;;;;;;;;;;5058121;28;20119;-78
2023/10/19 10:11:52;;;;;;;27.08;14.98;;;;;;;;;;5047398;28;20031;-77
2023/10/19 10:14:28;;;;;;;27.83;15.32;;;;;;;;;;5045878;28;20456;-76
2023/10/19 10:17:02;;;;;;;25.65;15.65;;;;;;;;;;5061588;28;20028;-76
2023/10/19 10:19:27;;;;;;;28.30;14.23;;;;;;;;;;5070838;28;20058;-76
2023/10/19 10:22:23;;;;;;;33.22;15.50;;;;;;;;;;5051709;28;20528;-76
2023/10/19 10:24:55;;;;;;;27.80;15.00;;;;;;;;;;5039869;28;20036;-77
2023/10/19 10:27:21;;;;;;;23.23;13.93;;;;;;;;;;5090942;28;20066;-78
2023/10/19 10:30:06;;;;;;;27.50;14.05;;;;;;;;;;5083311;28;20048;-75
2023/10/19 10:32:50;;;;;;;24.23;13.93;;;;;;;;;;5067714;28;20025;-77
2023/10/19 10:35:42;;;;;;;24.60;14.70;;;;;;;;;;5068399;28;20024;-76
2023/10/19 10:38:11;;;;;;;35.08;17.15;;;;;;;;;;5049964;28;20025;-75
2023/10/19 10:40:50;;;;;;;23.17;13.70;;;;;;;;;;5071562;28;20090;-79
2023/10/19 10:43:21;;;;;;;26.67;14.10;;;;;;;;;;5070607;28;20028;-77
2023/10/19 10:45:47;;;;;;;25.85;14.82;;;;;;;;;;5070266;28;20601;-77
2023/10/19 10:48:27;;;;;;;21.63;13.70;;;;;;;;;;5051141;28;20480;-77
2023/10/19 10:50:54;;;;;;;23.80;14.23;;;;;;;;;;5049194;28;20081;-77
2023/10/19 10:53:26;;;;;;;29.75;14.95;;;;;;;;;;5048292;28;20511;-74
2023/10/19 10:55:53;;;;;;;;;;;;;;;;;;5050745;28;20086;-75
2023/10/19 10:58:19;;;;;;;24.77;13.25;;;;;;;;;;5034824;28;19916;-78
2023/10/19 11:00:52;;;;;;;27.17;14.77;;;;;;;;;;5086080;28;20044;-76
2023/10/19 11:03:30;;;;;;;24.05;13.40;;;;;;;;;;5059006;28;20028;-75
2023/10/19 11:06:02;;;;;;;31.85;14.35;;;;;;;;;;5075837;28;20025;-76
2023/10/19 11:08:28;;;;;;;23.27;13.98;;;;;;;;;;5044269;28;20062;-77
2023/10/19 11:10:54;;;;;;;29.23;14.65;;;;;;;;;;5061833;28;20056;-75
2023/10/19 11:13:24;;;;;;;23.73;13.32;;;;;;;;;;5048440;28;20032;-74
2023/10/19 11:15:53;;;;;;;24.67;13.43;;;;;;;;;;5039081;28;20040;-76
2023/10/19 11:18:59;;;;;;;26.02;14.80;;;;;;;;;;5054944;28;20032;-74
2023/10/19 11:21:25;;;;;;;21.65;12.98;;;;;;;;;;5057506;28;20035;-74
2023/10/19 11:23:54;;;;;;;24.45;14.88;;;;;;;;;;5058071;28;20108;-77
2023/10/19 11:26:29;;;;;;;31.38;15.55;;;;;;;;;;5061256;28;20029;-74
2023/10/19 11:29:00;;;;;;;30.27;16.05;;;;;;;;;;5042136;28;20700;-76
2023/10/19 11:31:27;;;;;;;26.15;14.93;;;;;;;;;;5060139;28;20117;-76
2023/10/19 11:33:58;;;;;;;26.95;15.48;;;;;;;;;;5046198;28;20039;-74
2023/10/19 11:36:25;;;;;;;28.55;16.17;;;;;;;;;;5060746;28;20028;-74
2023/10/19 11:38:53;;;;;;;28.17;16.52;;;;;;;;;;5066932;28;20036;-74
2023/10/19 11:41:20;;;;;;;27.77;14.88;;;;;;;;;;5052443;28;20032;-77
2023/10/19 11:43:47;;;;;;;25.83;15.20;;;;;;;;;;5060307;28;20484;-75
2023/10/19 11:46:18;;;;;;;25.02;16.67;;;;;;;;;;5047144;28;20062;-76
2023/10/19 11:48:47;;;;;;;27.45;16.13;;;;;;;;;;5058188;28;20516;-75
2023/10/19 11:51:14;;;;;;;30.35;16.80;;;;;;;;;;5057349;28;20048;-77
2023/10/19 11:53:41;;;;;;;28.58;17.58;;;;;;;;;;5047305;28;20084;-76
2023/10/19 11:56:08;;;;;;;38.55;20.55;;;;;;;;;;5061638;28;20031;-78
2023/10/19 11:58:39;;;;;;;28.02;15.65;;;;;;;;;;5061908;28;20344;-75
2023/10/19 12:01:08;;;;;;;;;;;;;;;;;;5049163;28;20028;-77
2023/10/19 12:03:37;;;;;;;26.00;15.45;;;;;;;;;;5059003;28;19916;-77
2023/10/19 12:06:06;;;;;;;25.10;16.58;;;;;;;;;;5082664;28;20024;-76
2023/10/19 12:08:38;;;;;;;26.98;15.88;;;;;;;;;;5067158;28;20380;-77
2023/10/19 12:11:04;;;;;;;26.42;16.42;;;;;;;;;;5017828;28;20032;-75
2023/10/19 12:13:31;;;;;;;31.02;16.45;;;;;;;;;;5048726;28;20032;-77
2023/10/19 12:15:57;;;;;;;26.83;17.45;;;;;;;;;;5046677;28;20040;-75
2023/10/19 12:18:42;;;;;;;30.10;15.63;;;;;;;;;;5063012;28;20027;-75
2023/10/19 12:21:11;;;;;;;27.00;15.73;;;;;;;;;;5044837;28;20487;-76
2023/10/19 12:23:43;;;;;;;33.70;19.35;;;;;;;;;;5046854;28;20131;-77
2023/10/19 12:26:12;;;;;;;24.70;15.30;;;;;;;;;;5060232;28;20029;-79
2023/10/19 12:28:41;;;;;;;28.63;15.95;;;;;;;;;;5062557;28;20703;-75
2023/10/19 12:31:10;;;;;;;26.92;16.08;;;;;;;;;;5063394;28;20052;-77
2023/10/19 12:33:41;;;;;;;25.23;16.02;;;;;;;;;;5061854;28;20024;-76
2023/10/19 12:38:52;;;;;;;25.58;14.98;;;;;;;;;;5063017;28;20264;-77
2023/10/19 12:41:19;;;;;;;25.20;15.20;;;;;;;;;;5044968;28;20025;-77
2023/10/19 12:44:09;;;;;;;27.00;15.27;;;;;;;;;;5064082;28;20592;-74
2023/10/19 12:46:36;;;;;;;25.25;15.77;;;;;;;;;;5048110;28;20082;-76
2023/10/19 12:49:18;;;;;;;28.15;17.52;;;;;;;;;;5050746;28;20044;-77
2023/10/19 12:51:44;;;;;;;28.83;17.92;;;;;;;;;;5046099;28;20406;-77
2023/10/19 12:54:13;;;;;;;26.05;15.55;;;;;;;;;;5065088;28;20062;-76
2023/10/19 12:56:39;;;;;;;25.50;15.65;;;;;;;;;;5058122;28;20084;-77
2023/10/19 12:59:06;;;;;;;26.75;16.05;;;;;;;;;;5074654;28;20151;-76
2023/10/19 13:01:35;;;;;;;29.35;15.60;;;;;;;;;;5075992;28;20034;-77
2023/10/19 13:04:05;;;;;;;41.10;16.88;;;;;;;;;;5069991;28;20154;-78
2023/10/19 13:06:35;;;;;;;28.90;16.33;;;;;;;;;;5046134;28;20116;-75
2023/10/19 13:09:03;;;;;;;26.52;15.75;;;;;;;;;;5050350;28;20021;-75
2023/10/19 13:11:32;;;;;;;28.55;16.13;;;;;;;;;;5065824;28;20032;-77
2023/10/19 13:14:00;;;;;;;27.48;17.55;;;;;;;;;;5059834;28;20032;-78
2023/10/19 13:16:27;;;;;;;28.98;17.25;;;;;;;;;;5055667;28;20594;-78
2023/10/19 13:18:53;;;;;;;32.65;18.27;;;;;;;;;;5040453;28;20042;-77
2023/10/19 13:21:25;;;;;;;29.15;16.77;;;;;;;;;;5060248;28;20774;-76
2023/10/19 13:23:51;;;;;;;30.45;17.33;;;;;;;;;;5056890;28;20036;-76
2023/10/19 13:26:17;;;;;;;29.50;17.80;;;;;;;;;;5039242;28;20025;-75
2023/10/19 13:28:44;;;;;;;31.48;17.08;;;;;;;;;;5055244;28;20032;-77
2023/10/19 13:31:19;;;;;;;32.95;16.45;;;;;;;;;;5039095;28;20507;-76
2023/10/19 13:34:10;;;;;;;30.02;17.63;;;;;;;;;;5039574;28;20091;-79
2023/10/19 13:36:38;;;;;;;31.42;18.30;;;;;;;;;;5043631;28;20089;-77
2023/10/19 13:39:04;;;;;;;31.88;18.15;;;;;;;;;;5052287;28;20039;-75
2023/10/19 13:41:30;;;;;;;30.58;18.02;;;;;;;;;;5050893;28;20423;-76
2023/10/19 13:43:56;;;;;;;32.10;17.23;;;;;;;;;;5058841;28;21116;-77
2023/10/19 13:46:23;;;;;;;32.30;19.00;;;;;;;;;;5051732;28;20074;-78
2023/10/19 13:48:54;;;;;;;32.60;19.23;;;;;;;;;;5039846;28;20400;-76
2023/10/19 13:51:20;;;;;;;33.83;18.30;;;;;;;;;;5028834;28;20039;-75
2023/10/19 13:53:49;;;;;;;33.38;18.00;;;;;;;;;;5042070;28;20041;-76
2023/10/19 13:56:15;;;;;;;29.27;17.33;;;;;;;;;;5068425;28;20029;-77
2023/10/19 13:58:41;;;;;;;32.05;20.58;;;;;;;;;;5041681;28;20404;-78
2023/10/19 14:01:08;;;;;;;34.40;19.17;;;;;;;;;;5056815;28;20036;-77
2023/10/19 14:03:40;;;;;;;33.22;18.30;;;;;;;;;;5058915;28;20447;-77
2023/10/19 14:06:12;;;;;;;29.17;18.13;;;;;;;;;;5042750;28;20036;-76
2023/10/19 14:08:38;;;;;;;28.65;17.75;;;;;;;;;;5042444;28;20445;-77
2023/10/19 14:11:06;;;;;;;29.60;18.00;;;;;;;;;;5057795;28;20088;-78
2023/10/19 14:13:32;;;;;;;31.95;18.85;;;;;;;;;;5059733;28;20086;-78
2023/10/19 14:15:57;;;;;;;29.52;17.67;;;;;;;;;;5058907;28;20044;-77
2023/10/19 14:18:53;;;;;;;38.33;19.58;;;;;;;;;;5057458;28;20554;-77
2023/10/19 14:21:26;;;;;;;30.60;18.67;;;;;;;;;;5060676;28;20647;-78
2023/10/19 14:23:54;;;;;;;36.90;19.67;;;;;;;;;;5060840;28;20036;-78
2023/10/19 14:26:19;;;;;;;51.53;22.80;;;;;;;;;;5061840;28;20489;-79
2023/10/19 14:28:47;;;;;;;31.70;19.55;;;;;;;;;;5056881;28;20074;-76
2023/10/19 14:31:13;;;;;;;35.92;21.85;;;;;;;;;;5041553;28;20043;-74
2023/10/19 14:36:29;;;;;;;38.15;21.10;;;;;;;;;;5063357;28;20048;-75
2023/10/19 14:38:55;;;;;;;32.00;19.88;;;;;;;;;;5062266;28;20025;-74
2023/10/19 14:41:24;;;;;;;38.47;19.90;;;;;;;;;;5052784;28;20032;-74
2023/10/19 14:43:49;;;;;;;34.35;19.88;;;;;;;;;;5063605;28;20029;-75
2023/10/19 14:46:16;;;;;;;38.38;23.05;;;;;;;;;;5064079;28;20025;-78
2023/10/19 14:49:00;;;;;;;39.17;21.88;;;;;;;;;;5066785;28;20487;-79
2023/10/19 14:51:25;;;;;;;39.58;22.77;;;;;;;;;;5069717;28;20111;-83
2023/10/19 14:53:53;;;;;;;39.05;22.75;;;;;;;;;;5068487;28;20421;-80
2023/10/19 14:56:19;;;;;;;37.08;21.48;;;;;;;;;;5053608;28;20044;-76
2023/10/19 14:58:46;;;;;;;38.65;22.00;;;;;;;;;;5063994;28;20037;-77
2023/10/19 15:01:16;;;;;;;38.13;21.23;;;;;;;;;;5045899;28;20105;-78
2023/10/19 15:04:19;;;;;;;36.58;21.25;;;;;;;;;;5056131;28;20055;-76
2023/10/19 15:06:44;;;;;;;45.22;22.67;;;;;;;;;;5062031;28;20523;-76
2023/10/19 15:09:14;;;;;;;39.10;22.98;;;;;;;;;;5062930;28;20032;-78